Time,TemperatureF,DewpointF,PressureIn,WindDirection,WindDirectionDegrees,WindSpeedMPH,WindSpeedGustMPH,Humidity,HourlyPrecipIn,Conditions,Clouds,dailyrainin,SoftwareType,DateUTC
2013-05-17 00:00:00,59.2,57.8,29.93,ENE,67,0.0,0.0,95,0.00,,,0.07,VWS V14.01,2013-05-17 04:00:00,
2013-05-17 00:01:00,59.2,57.8,29.93,ENE,67,0.0,0.0,95,0.00,,,0.07,VWS V14.01,2013-05-17 04:01:00,
2013-05-17 00:02:00,59.2,57.8,29.94,ENE,67,0.0,0.0,95,0.00,,,0.07,VWS V14.01,2013-05-17 04:02:00,
2013-05-17 00:04:00,59.2,57.8,29.94,ENE,67,0.0,0.0,95,0.00,,,0.00,VWS V14.01,2013-05-17 04:04:00,
2013-05-17 00:05:00,59.0,57.6,29.94,ENE,67,0.0,0.0,95,0.00,,,0.00,VWS V14.01,2013-05-17 04:05:00,
2013-05-17 00:10:00,59.0,57.6,29.94,ENE,67,0.0,0.0,95,0.00,,,0.00,VWS V14.01,2013-05-17 04:10:00,
2013-05-17 00:15:00,58.9,57.5,29.94,ENE,67,0.0,0.0,95,0.00,,,0.00,VWS V14.01,2013-05-17 04:15:00,
2013-05-17 00:20:00,58.6,57.2,29.93,ENE,67,0.0,0.0,95,0.00,,,0.00,VWS V14.01,2013-05-17 04:20:00,
2013-05-17 00:25:00,58.4,57.0,29.93,ENE,67,0.0,0.0,95,0.00,,,0.00,VWS V14.01,2013-05-17 04:25:00,
2013-05-17 00:30:00,58.4,57.0,29.93,ENE,67,0.0,0.0,95,0.00,,,0.00,VWS V14.01,2013-05-17 04:30:00,
2013-05-17 00:35:00,58.1,56.7,29.93,ENE,67,0.0,0.0,95,0.00,,,0.00,VWS V14.01,2013-05-17 04:35:00,
2013-05-17 00:40:00,58.1,56.7,29.93,ENE,67,0.0,0.0,95,0.00,,,0.00,VWS V14.01,2013-05-17 04:40:00,
2013-05-17 00:45:00,58.0,56.6,29.93,ENE,67,0.0,0.0,95,0.00,,,0.00,VWS V14.01,2013-05-17 04:45:00,
2013-05-17 00:50:00,57.8,56.4,29.93,ENE,67,0.0,0.0,95,0.00,,,0.00,VWS V14.01,2013-05-17 04:50:00,
2013-05-17 00:55:00,57.6,56.2,29.93,ENE,67,0.0,0.0,95,0.00,,,0.00,VWS V14.01,2013-05-17 04:55:00,
2013-05-17 01:00:00,57.5,56.1,29.93,ENE,67,0.0,0.0,95,0.00,,,0.00,VWS V14.01,2013-05-17 05:00:00,
2013-05-17 01:05:00,57.3,55.9,29.93,ENE,67,0.0,0.0,95,0.00,,,0.00,VWS V14.01,2013-05-17 05:05:00,
2013-05-17 01:10:00,57.3,55.9,29.93,ENE,67,0.0,0.0,95,0.00,,,0.00,VWS V14.01,2013-05-17 05:10:00,
2013-05-17 01:15:00,57.2,55.8,29.93,ENE,67,0.0,0.0,95,0.00,,,0.00,VWS V14.01,2013-05-17 05:15:00,
2013-05-17 01:20:00,57.0,55.6,29.92,ENE,67,0.0,0.0,95,0.00,,,0.00,VWS V14.01,2013-05-17 05:20:00,
2013-05-17 01:25:00,56.9,55.5,29.92,ENE,67,0.0,0.0,95,0.00,,,0.00,VWS V14.01,2013-05-17 05:25:00,
2013-05-17 01:30:00,56.9,55.5,29.92,ENE,67,0.0,0.0,95,0.00,,,0.00,VWS V14.01,2013-05-17 05:30:00,
2013-05-17 01:35:00,56.7,55.3,29.92,ENE,67,0.0,0.0,95,0.00,,,0.00,VWS V14.01,2013-05-17 05:35:00,
2013-05-17 01:40:00,56.6,55.2,29.92,ENE,67,0.0,0.0,95,0.00,,,0.00,VWS V14.01,2013-05-17 05:40:00,
2013-05-17 01:45:00,56.6,55.2,29.92,ENE,67,0.0,0.0,95,0.00,,,0.00,VWS V14.01,2013-05-17 05:45:00,
2013-05-17 01:50:00,56.5,55.1,29.92,ENE,67,0.0,0.0,95,0.00,,,0.00,VWS V14.01,2013-05-17 05:50:00,
2013-05-17 01:55:00,56.5,55.1,29.92,ENE,67,0.0,0.0,95,0.00,,,0.00,VWS V14.01,2013-05-17 05:55:00,
2013-05-17 02:00:00,56.3,54.9,29.93,ENE,67,0.0,0.0,95,0.00,,,0.00,VWS V14.01,2013-05-17 06:00:00,
2013-05-17 02:01:00,56.3,54.9,29.92,ENE,67,0.0,0.0,95,0.00,,,0.00,VWS V14.01,2013-05-17 06:01:00,
2013-05-17 02:05:00,56.2,54.8,29.93,ENE,67,0.0,0.0,95,0.00,,,0.00,VWS V14.01,2013-05-17 06:05:00,
2013-05-17 02:06:00,56.2,54.8,29.93,ENE,67,0.0,0.0,95,0.00,,,0.00,VWS V14.01,2013-05-17 06:06:00,
2013-05-17 02:10:00,56.2,55.1,29.93,ENE,67,0.0,0.0,96,0.00,,,0.00,VWS V14.01,2013-05-17 06:10:00,
2013-05-17 02:11:00,56.2,55.1,29.93,ENE,67,0.0,0.0,96,0.00,,,0.00,VWS V14.01,2013-05-17 06:11:00,
2013-05-17 02:15:00,56.0,54.9,29.93,ENE,67,0.0,0.0,96,0.00,,,0.00,VWS V14.01,2013-05-17 06:15:00,
2013-05-17 02:16:00,56.0,54.9,29.93,ENE,67,0.0,0.0,96,0.00,,,0.00,VWS V14.01,2013-05-17 06:16:00,
2013-05-17 02:20:00,56.0,54.9,29.93,ENE,67,0.0,0.0,96,0.00,,,0.00,VWS V14.01,2013-05-17 06:20:00,
2013-05-17 02:21:00,56.0,54.9,29.93,ENE,67,0.0,0.0,96,0.00,,,0.00,VWS V14.01,2013-05-17 06:21:00,
2013-05-17 02:25:00,56.0,54.9,29.93,ENE,67,0.0,0.0,96,0.00,,,0.00,VWS V14.01,2013-05-17 06:25:00,
2013-05-17 02:26:00,56.0,54.9,29.93,ENE,67,0.0,0.0,96,0.00,,,0.00,VWS V14.01,2013-05-17 06:26:00,
2013-05-17 02:30:00,55.9,54.8,29.93,ENE,67,0.0,0.0,96,0.00,,,0.00,VWS V14.01,2013-05-17 06:30:00,
2013-05-17 02:31:00,55.9,54.8,29.93,ENE,67,0.0,0.0,96,0.00,,,0.00,VWS V14.01,2013-05-17 06:31:00,
2013-05-17 02:35:00,55.9,54.8,29.93,ENE,67,0.0,0.0,96,0.00,,,0.00,VWS V14.01,2013-05-17 06:35:00,
2013-05-17 02:36:00,55.9,54.8,29.93,ENE,67,0.0,0.0,96,0.00,,,0.00,VWS V14.01,2013-05-17 06:36:00,
2013-05-17 02:40:00,55.7,54.6,29.93,ENE,67,0.0,0.0,96,0.00,,,0.00,VWS V14.01,2013-05-17 06:40:00,
2013-05-17 02:41:00,55.7,54.6,29.93,ENE,67,0.0,0.0,96,0.00,,,0.00,VWS V14.01,2013-05-17 06:41:00,
2013-05-17 02:45:00,55.7,54.6,29.93,ENE,67,0.0,0.0,96,0.00,,,0.00,VWS V14.01,2013-05-17 06:45:00,
2013-05-17 02:46:00,55.7,54.6,29.93,ENE,67,0.0,0.0,96,0.00,,,0.00,VWS V14.01,2013-05-17 06:46:00,
2013-05-17 02:50:00,55.7,54.6,29.93,ENE,67,0.0,0.0,96,0.00,,,0.00,VWS V14.01,2013-05-17 06:50:00,
2013-05-17 02:51:00,55.7,54.6,29.93,ENE,67,0.0,0.0,96,0.00,,,0.00,VWS V14.01,2013-05-17 06:51:00,
2013-05-17 02:55:00,55.6,54.5,29.93,ENE,67,0.0,0.0,96,0.00,,,0.00,VWS V14.01,2013-05-17 06:55:00,
2013-05-17 02:56:00,55.6,54.5,29.93,ENE,67,0.0,0.0,96,0.00,,,0.00,VWS V14.01,2013-05-17 06:56:00,
2013-05-17 03:00:00,55.6,54.5,29.94,ENE,67,0.0,0.0,96,0.00,,,0.00,VWS V14.01,2013-05-17 07:00:00,
2013-05-17 03:01:00,55.6,54.5,29.94,ENE,67,0.0,0.0,96,0.00,,,0.00,VWS V14.01,2013-05-17 07:01:00,
2013-05-17 03:05:00,55.6,54.5,29.94,ENE,67,0.0,0.0,96,0.00,,,0.00,VWS V14.01,2013-05-17 07:05:00,
2013-05-17 03:06:00,55.6,54.5,29.94,ENE,67,0.0,0.0,96,0.00,,,0.00,VWS V14.01,2013-05-17 07:06:00,
2013-05-17 03:10:00,55.6,54.5,29.94,ENE,67,0.0,0.0,96,0.00,,,0.00,VWS V14.01,2013-05-17 07:10:00,
2013-05-17 03:11:00,55.6,54.5,29.94,ENE,67,0.0,0.0,96,0.00,,,0.00,VWS V14.01,2013-05-17 07:11:00,
2013-05-17 03:15:00,55.6,54.5,29.94,ENE,67,0.0,0.0,96,0.00,,,0.00,VWS V14.01,2013-05-17 07:15:00,
2013-05-17 03:17:00,55.6,54.5,29.94,ENE,67,0.0,0.0,96,0.00,,,0.00,VWS V14.01,2013-05-17 07:17:00,
2013-05-17 03:20:00,55.4,54.3,29.94,ENE,67,0.0,0.0,96,0.00,,,0.00,VWS V14.01,2013-05-17 07:20:00,
2013-05-17 03:22:00,55.4,54.3,29.94,ENE,67,0.0,0.0,96,0.00,,,0.00,VWS V14.01,2013-05-17 07:22:00,
2013-05-17 03:25:00,55.4,54.3,29.94,ENE,67,0.0,0.0,96,0.00,,,0.00,VWS V14.01,2013-05-17 07:25:00,
2013-05-17 03:27:00,55.4,54.3,29.94,ENE,67,0.0,0.0,96,0.00,,,0.00,VWS V14.01,2013-05-17 07:27:00,
2013-05-17 03:30:00,55.6,54.5,29.94,ENE,67,0.0,0.0,96,0.00,,,0.00,VWS V14.01,2013-05-17 07:30:00,
2013-05-17 03:32:00,55.6,54.5,29.94,ENE,67,0.0,0.0,96,0.00,,,0.00,VWS V14.01,2013-05-17 07:32:00,
2013-05-17 03:35:00,55.7,54.6,29.94,ENE,67,0.0,0.0,96,0.00,,,0.00,VWS V14.01,2013-05-17 07:35:00,
2013-05-17 03:37:00,55.7,54.6,29.94,ENE,67,0.0,0.0,96,0.00,,,0.00,VWS V14.01,2013-05-17 07:37:00,
2013-05-17 03:40:00,55.7,54.6,29.94,ENE,67,0.0,0.0,96,0.00,,,0.00,VWS V14.01,2013-05-17 07:40:00,
2013-05-17 03:42:00,55.7,54.6,29.94,ENE,67,0.0,0.0,96,0.00,,,0.00,VWS V14.01,2013-05-17 07:42:00,
2013-05-17 03:45:00,55.7,54.6,29.95,ENE,67,0.0,0.0,96,0.00,,,0.00,VWS V14.01,2013-05-17 07:45:00,
2013-05-17 03:47:00,55.7,54.6,29.95,ENE,67,0.0,0.0,96,0.00,,,0.00,VWS V14.01,2013-05-17 07:47:00,
2013-05-17 03:50:00,55.6,54.5,29.95,ENE,67,0.0,0.0,96,0.00,,,0.00,VWS V14.01,2013-05-17 07:50:00,
2013-05-17 03:52:00,55.6,54.5,29.95,ENE,67,0.0,0.0,96,0.00,,,0.00,VWS V14.01,2013-05-17 07:52:00,
2013-05-17 03:55:00,55.6,54.5,29.95,ENE,67,0.0,0.0,96,0.00,,,0.00,VWS V14.01,2013-05-17 07:55:00,
2013-05-17 03:57:00,55.6,54.5,29.95,ENE,67,0.0,0.0,96,0.00,,,0.00,VWS V14.01,2013-05-17 07:57:00,
2013-05-17 04:00:00,55.6,54.5,29.95,ENE,67,0.0,0.0,96,0.00,,,0.00,VWS V14.01,2013-05-17 08:00:00,
2013-05-17 04:02:00,55.6,54.5,29.95,ENE,67,0.0,0.0,96,0.00,,,0.00,VWS V14.01,2013-05-17 08:02:00,
2013-05-17 04:05:00,55.6,54.5,29.95,ENE,67,0.0,0.0,96,0.00,,,0.00,VWS V14.01,2013-05-17 08:05:00,
2013-05-17 04:07:00,55.6,54.5,29.95,ENE,67,0.0,0.0,96,0.00,,,0.00,VWS V14.01,2013-05-17 08:07:00,
2013-05-17 04:10:00,55.7,54.6,29.95,ENE,67,0.0,0.0,96,0.00,,,0.00,VWS V14.01,2013-05-17 08:10:00,
2013-05-17 04:12:00,55.7,54.6,29.95,ENE,67,0.0,0.0,96,0.00,,,0.00,VWS V14.01,2013-05-17 08:12:00,
2013-05-17 04:15:00,55.7,54.6,29.95,ENE,67,0.0,0.0,96,0.00,,,0.00,VWS V14.01,2013-05-17 08:15:00,
2013-05-17 04:17:00,55.7,54.6,29.95,ENE,67,0.0,0.0,96,0.00,,,0.00,VWS V14.01,2013-05-17 08:17:00,
2013-05-17 04:20:00,55.6,54.5,29.95,ENE,67,0.0,0.0,96,0.00,,,0.00,VWS V14.01,2013-05-17 08:20:00,
2013-05-17 04:22:00,55.6,54.5,29.95,ENE,67,0.0,0.0,96,0.00,,,0.00,VWS V14.01,2013-05-17 08:22:00,
2013-05-17 04:25:00,55.6,54.5,29.95,ENE,67,0.0,0.0,96,0.00,,,0.00,VWS V14.01,2013-05-17 08:25:00,
2013-05-17 04:27:00,55.6,54.5,29.95,ENE,67,0.0,0.0,96,0.00,,,0.00,VWS V14.01,2013-05-17 08:27:00,
2013-05-17 04:30:00,55.6,54.5,29.96,ENE,67,0.0,0.0,96,0.00,,,0.00,VWS V14.01,2013-05-17 08:30:00,
2013-05-17 04:33:00,55.6,54.5,29.96,ENE,67,0.0,0.0,96,0.00,,,0.00,VWS V14.01,2013-05-17 08:33:00,
2013-05-17 04:35:00,55.6,54.5,29.96,ENE,67,0.0,0.0,96,0.00,,,0.00,VWS V14.01,2013-05-17 08:35:00,
2013-05-17 04:38:00,55.6,54.5,29.96,ENE,67,0.0,0.0,96,0.00,,,0.00,VWS V14.01,2013-05-17 08:38:00,
2013-05-17 04:40:00,55.6,54.5,29.96,ENE,67,0.0,0.0,96,0.00,,,0.00,VWS V14.01,2013-05-17 08:40:00,
2013-05-17 04:43:00,55.6,54.5,29.96,ENE,67,0.0,0.0,96,0.00,,,0.00,VWS V14.01,2013-05-17 08:43:00,
2013-05-17 04:45:00,55.6,54.5,29.96,ENE,67,0.0,0.0,96,0.00,,,0.00,VWS V14.01,2013-05-17 08:45:00,
2013-05-17 04:48:00,55.6,54.5,29.96,ENE,67,0.0,0.0,96,0.00,,,0.00,VWS V14.01,2013-05-17 08:48:00,
2013-05-17 04:50:00,55.7,54.6,29.96,ENE,67,0.0,0.0,96,0.00,,,0.00,VWS V14.01,2013-05-17 08:50:00,
2013-05-17 04:53:00,55.7,54.6,29.96,ENE,67,0.0,0.0,96,0.00,,,0.00,VWS V14.01,2013-05-17 08:53:00,
2013-05-17 04:55:00,55.7,54.6,29.96,ENE,67,0.0,0.0,96,0.00,,,0.00,VWS V14.01,2013-05-17 08:55:00,
2013-05-17 04:58:00,55.7,54.6,29.96,ENE,67,0.0,0.0,96,0.00,,,0.00,VWS V14.01,2013-05-17 08:58:00,
2013-05-17 05:00:00,55.7,54.6,29.96,ENE,67,0.0,0.0,96,0.00,,,0.00,VWS V14.01,2013-05-17 09:00:00,
2013-05-17 05:03:00,55.7,54.6,29.96,ENE,67,0.0,0.0,96,0.00,,,0.00,VWS V14.01,2013-05-17 09:03:00,
2013-05-17 05:05:00,55.9,54.8,29.96,ENE,67,0.0,0.0,96,0.00,,,0.00,VWS V14.01,2013-05-17 09:05:00,
2013-05-17 05:08:00,55.9,54.8,29.96,ENE,67,0.0,0.0,96,0.00,,,0.00,VWS V14.01,2013-05-17 09:08:00,
2013-05-17 05:10:00,55.9,54.8,29.96,ENE,67,0.0,0.0,96,0.00,,,0.00,VWS V14.01,2013-05-17 09:10:00,
2013-05-17 05:13:00,55.9,54.8,29.96,ENE,67,0.0,0.0,96,0.00,,,0.00,VWS V14.01,2013-05-17 09:13:00,
2013-05-17 05:15:00,55.9,54.8,29.96,ENE,67,0.0,0.0,96,0.00,,,0.00,VWS V14.01,2013-05-17 09:15:00,
2013-05-17 05:18:00,55.9,54.8,29.96,ENE,67,0.0,0.0,96,0.00,,,0.00,VWS V14.01,2013-05-17 09:18:00,
2013-05-17 05:20:00,55.9,54.8,29.96,ENE,67,0.0,0.0,96,0.00,,,0.00,VWS V14.01,2013-05-17 09:20:00,
2013-05-17 05:23:00,55.9,54.8,29.96,ENE,67,0.0,0.0,96,0.00,,,0.00,VWS V14.01,2013-05-17 09:23:00,
2013-05-17 05:25:00,56.0,54.9,29.96,ENE,67,0.0,0.0,96,0.00,,,0.00,VWS V14.01,2013-05-17 09:25:00,
2013-05-17 05:28:00,56.0,54.9,29.96,ENE,67,0.0,0.0,96,0.00,,,0.00,VWS V14.01,2013-05-17 09:28:00,
2013-05-17 05:30:00,56.0,54.9,29.97,ENE,67,0.0,0.0,96,0.00,,,0.00,VWS V14.01,2013-05-17 09:30:00,
2013-05-17 05:33:00,56.0,54.9,29.97,ENE,67,0.0,0.0,96,0.00,,,0.00,VWS V14.01,2013-05-17 09:33:00,
2013-05-17 05:35:00,56.0,54.9,29.97,ENE,67,0.0,0.0,96,0.00,,,0.00,VWS V14.01,2013-05-17 09:35:00,
2013-05-17 05:38:00,56.0,54.9,29.97,ENE,67,0.0,0.0,96,0.00,,,0.00,VWS V14.01,2013-05-17 09:38:00,
2013-05-17 05:40:00,56.0,54.9,29.97,ENE,67,0.0,0.0,96,0.00,,,0.00,VWS V14.01,2013-05-17 09:40:00,
2013-05-17 05:43:00,56.0,54.9,29.97,ENE,67,0.0,0.0,96,0.00,,,0.00,VWS V14.01,2013-05-17 09:43:00,
2013-05-17 05:45:00,56.0,54.9,29.97,ENE,67,0.0,0.0,96,0.00,,,0.00,VWS V14.01,2013-05-17 09:45:00,
2013-05-17 05:48:00,56.0,54.9,29.97,ENE,67,0.0,0.0,96,0.00,,,0.00,VWS V14.01,2013-05-17 09:48:00,
2013-05-17 05:50:00,55.9,54.8,29.97,ENE,67,0.0,0.0,96,0.00,,,0.00,VWS V14.01,2013-05-17 09:50:00,
2013-05-17 05:53:00,55.9,54.8,29.97,ENE,67,0.0,0.0,96,0.00,,,0.00,VWS V14.01,2013-05-17 09:53:00,
2013-05-17 05:55:00,55.9,54.8,29.97,ENE,67,0.0,0.0,96,0.00,,,0.00,VWS V14.01,2013-05-17 09:55:00,
2013-05-17 05:58:00,55.9,54.8,29.97,ENE,67,0.0,0.0,96,0.00,,,0.00,VWS V14.01,2013-05-17 09:58:00,
2013-05-17 06:00:00,55.9,54.8,29.97,ENE,67,0.0,0.0,96,0.00,,,0.00,VWS V14.01,2013-05-17 10:00:00,
2013-05-17 06:03:00,55.9,54.8,29.97,ENE,67,0.0,0.0,96,0.00,,,0.00,VWS V14.01,2013-05-17 10:03:00,
2013-05-17 06:05:00,55.9,54.8,29.97,ENE,67,0.0,0.0,96,0.00,,,0.00,VWS V14.01,2013-05-17 10:05:00,
2013-05-17 06:08:00,55.7,54.6,29.97,ENE,67,0.0,0.0,96,0.00,,,0.00,VWS V14.01,2013-05-17 10:08:00,
2013-05-17 06:10:00,55.7,54.6,29.97,ENE,67,0.0,0.0,96,0.00,,,0.00,VWS V14.01,2013-05-17 10:10:00,
2013-05-17 06:13:00,55.7,54.6,29.97,ENE,67,0.0,0.0,96,0.00,,,0.00,VWS V14.01,2013-05-17 10:13:00,
2013-05-17 06:15:00,55.7,54.6,29.98,ENE,67,0.0,0.0,96,0.00,,,0.00,VWS V14.01,2013-05-17 10:15:00,
2013-05-17 06:19:00,55.7,54.6,29.98,ENE,67,0.0,0.0,96,0.00,,,0.00,VWS V14.01,2013-05-17 10:19:00,
2013-05-17 06:20:00,55.6,54.5,29.98,ENE,67,0.0,0.0,96,0.00,,,0.00,VWS V14.01,2013-05-17 10:20:00,
2013-05-17 06:24:00,55.6,54.5,29.98,ENE,67,0.0,0.0,96,0.00,,,0.00,VWS V14.01,2013-05-17 10:24:00,
2013-05-17 06:25:00,55.7,54.6,29.98,ENE,67,0.0,0.0,96,0.00,,,0.00,VWS V14.01,2013-05-17 10:25:00,
2013-05-17 06:29:00,55.7,54.6,29.98,NE,53,0.0,0.0,96,0.00,,,0.00,VWS V14.01,2013-05-17 10:29:00,
2013-05-17 06:30:00,55.7,54.6,29.98,ENE,78,0.0,0.0,96,0.00,,,0.00,VWS V14.01,2013-05-17 10:30:00,
2013-05-17 06:34:00,55.7,54.6,29.98,ENE,78,0.0,0.0,96,0.00,,,0.00,VWS V14.01,2013-05-17 10:34:00,
2013-05-17 06:35:00,55.7,54.6,29.98,ENE,78,0.0,0.0,96,0.00,,,0.00,VWS V14.01,2013-05-17 10:35:00,
2013-05-17 06:39:00,55.7,54.6,29.98,ENE,78,0.0,0.0,96,0.00,,,0.00,VWS V14.01,2013-05-17 10:39:00,
2013-05-17 06:40:00,55.6,54.5,29.98,ENE,78,0.0,0.0,96,0.00,,,0.00,VWS V14.01,2013-05-17 10:40:00,
2013-05-17 06:44:00,55.6,54.5,29.98,ENE,78,0.0,0.0,96,0.00,,,0.00,VWS V14.01,2013-05-17 10:44:00,
2013-05-17 06:45:00,55.6,54.5,29.98,ENE,78,0.0,0.0,96,0.00,,,0.00,VWS V14.01,2013-05-17 10:45:00,
2013-05-17 06:49:00,55.6,54.5,29.98,ENE,78,0.0,0.0,96,0.00,,,0.00,VWS V14.01,2013-05-17 10:49:00,
2013-05-17 06:50:00,55.4,54.3,29.98,ENE,78,0.0,0.0,96,0.00,,,0.00,VWS V14.01,2013-05-17 10:50:00,
2013-05-17 06:54:00,55.4,54.3,29.98,ENE,78,0.0,0.0,96,0.00,,,0.00,VWS V14.01,2013-05-17 10:54:00,
2013-05-17 06:55:00,55.4,54.3,29.98,ENE,78,0.0,0.0,96,0.00,,,0.00,VWS V14.01,2013-05-17 10:55:00,
2013-05-17 06:59:00,55.3,54.2,29.98,ENE,73,0.0,0.0,96,0.00,,,0.00,VWS V14.01,2013-05-17 10:59:00,
2013-05-17 07:00:00,55.3,54.2,29.99,ENE,73,0.0,0.0,96,0.00,,,0.00,VWS V14.01,2013-05-17 11:00:00,
2013-05-17 07:04:00,55.3,54.2,29.99,ENE,73,0.0,0.0,96,0.00,,,0.00,VWS V14.01,2013-05-17 11:04:00,
2013-05-17 07:05:00,55.3,54.2,29.99,ENE,73,0.0,0.0,96,0.00,,,0.00,VWS V14.01,2013-05-17 11:05:00,
2013-05-17 07:09:00,55.3,54.2,29.99,ENE,73,0.0,0.0,96,0.00,,,0.00,VWS V14.01,2013-05-17 11:09:00,
2013-05-17 07:10:00,55.4,54.3,29.99,ENE,73,0.0,0.0,96,0.00,,,0.00,VWS V14.01,2013-05-17 11:10:00,
2013-05-17 07:14:00,55.4,54.3,29.99,ENE,73,0.0,0.0,96,0.00,,,0.00,VWS V14.01,2013-05-17 11:14:00,
2013-05-17 07:15:00,55.4,54.3,29.99,ENE,73,0.0,0.0,96,0.00,,,0.00,VWS V14.01,2013-05-17 11:15:00,
2013-05-17 07:19:00,55.4,54.3,29.99,ENE,73,0.0,0.0,96,0.00,,,0.00,VWS V14.01,2013-05-17 11:19:00,
2013-05-17 07:20:00,55.6,54.5,29.99,East,96,0.0,0.0,96,0.00,,,0.00,VWS V14.01,2013-05-17 11:20:00,
2013-05-17 07:24:00,55.6,54.5,29.99,East,96,0.0,0.0,96,0.00,,,0.00,VWS V14.01,2013-05-17 11:24:00,
2013-05-17 07:25:00,55.7,54.6,29.99,East,96,0.0,0.0,96,0.00,,,0.00,VWS V14.01,2013-05-17 11:25:00,
2013-05-17 07:29:00,55.7,54.6,29.99,East,96,0.0,0.0,96,0.00,,,0.00,VWS V14.01,2013-05-17 11:29:00,
2013-05-17 07:30:00,56.0,55.2,30.00,East,96,0.0,0.0,97,0.00,,,0.00,VWS V14.01,2013-05-17 11:30:00,
2013-05-17 07:34:00,56.0,54.9,30.00,East,96,0.0,0.0,96,0.00,,,0.00,VWS V14.01,2013-05-17 11:34:00,
2013-05-17 07:35:00,56.2,55.1,30.00,East,96,0.0,0.0,96,0.00,,,0.00,VWS V14.01,2013-05-17 11:35:00,
2013-05-17 07:39:00,56.2,55.1,30.00,East,96,0.0,0.0,96,0.00,,,0.00,VWS V14.01,2013-05-17 11:39:00,
2013-05-17 07:40:00,56.3,55.2,30.00,East,96,0.0,0.0,96,0.00,,,0.00,VWS V14.01,2013-05-17 11:40:00,
2013-05-17 07:44:00,56.5,55.7,30.00,East,96,0.0,0.0,97,0.00,,,0.00,VWS V14.01,2013-05-17 11:44:00,
2013-05-17 07:45:00,56.6,55.8,30.00,East,96,0.0,0.0,97,0.00,,,0.00,VWS V14.01,2013-05-17 11:45:00,
2013-05-17 07:49:00,56.6,55.8,30.00,East,96,0.0,0.0,97,0.00,,,0.00,VWS V14.01,2013-05-17 11:49:00,
2013-05-17 07:50:00,56.9,56.1,30.00,East,96,0.0,0.0,97,0.00,,,0.00,VWS V14.01,2013-05-17 11:50:00,
2013-05-17 07:54:00,57.0,56.2,30.00,East,96,0.0,0.0,97,0.00,,,0.00,VWS V14.01,2013-05-17 11:54:00,
2013-05-17 07:55:00,57.0,56.2,30.00,East,96,0.0,0.0,97,0.00,,,0.00,VWS V14.01,2013-05-17 11:55:00,
2013-05-17 07:59:00,57.2,56.4,30.00,East,96,0.0,0.0,97,0.00,,,0.00,VWS V14.01,2013-05-17 11:59:00,
2013-05-17 08:00:00,57.2,56.4,30.01,East,96,0.0,0.0,97,0.00,,,0.00,VWS V14.01,2013-05-17 12:00:00,
2013-05-17 08:04:00,57.3,56.5,30.01,East,96,0.0,0.0,97,0.00,,,0.00,VWS V14.01,2013-05-17 12:04:00,
2013-05-17 08:05:00,57.5,56.7,30.01,East,96,0.0,0.0,97,0.00,,,0.00,VWS V14.01,2013-05-17 12:05:00,
2013-05-17 08:10:00,57.5,56.7,30.01,East,96,0.0,0.0,97,0.00,,,0.00,VWS V14.01,2013-05-17 12:10:00,
2013-05-17 08:15:00,57.5,56.7,30.01,East,96,0.0,0.0,97,0.00,,,0.00,VWS V14.01,2013-05-17 12:15:00,
2013-05-17 08:20:00,57.6,56.8,30.02,East,96,0.0,0.0,97,0.00,,,0.00,VWS V14.01,2013-05-17 12:20:00,
2013-05-17 08:25:00,58.0,57.2,30.02,East,96,0.0,0.0,97,0.00,,,0.00,VWS V14.01,2013-05-17 12:25:00,
2013-05-17 08:30:00,58.1,57.3,30.02,SE,127,0.0,0.0,97,0.00,,,0.00,VWS V14.01,2013-05-17 12:30:00,
2013-05-17 08:35:00,58.4,57.6,30.02,SE,127,0.0,0.0,97,0.00,,,0.00,VWS V14.01,2013-05-17 12:35:00,
2013-05-17 08:40:00,58.7,57.8,30.02,SE,127,0.0,0.0,97,0.00,,,0.00,VWS V14.01,2013-05-17 12:40:00,
2013-05-17 08:45:00,58.9,57.8,30.02,SE,127,0.0,0.0,96,0.00,,,0.00,VWS V14.01,2013-05-17 12:45:00,
2013-05-17 08:50:00,58.7,57.6,30.02,SE,127,0.0,0.0,96,0.00,,,0.00,VWS V14.01,2013-05-17 12:50:00,
2013-05-17 08:55:00,58.9,57.8,30.02,SE,127,0.0,0.0,96,0.00,,,0.00,VWS V14.01,2013-05-17 12:55:00,
2013-05-17 09:00:00,59.2,58.1,30.02,SE,127,0.0,0.0,96,0.00,,,0.00,VWS V14.01,2013-05-17 13:00:00,
2013-05-17 09:05:00,59.2,58.1,30.02,SE,127,0.0,0.0,96,0.00,,,0.00,VWS V14.01,2013-05-17 13:05:00,
2013-05-17 09:10:00,59.3,57.9,30.02,SE,127,0.0,0.0,95,0.00,,,0.00,VWS V14.01,2013-05-17 13:10:00,
2013-05-17 09:15:00,60.1,59.0,30.02,SE,127,0.0,0.0,96,0.00,,,0.00,VWS V14.01,2013-05-17 13:15:00,
2013-05-17 09:16:00,59.9,58.8,30.02,SE,127,0.0,0.0,96,0.00,,,0.00,VWS V14.01,2013-05-17 13:16:00,
2013-05-17 09:20:00,60.5,59.4,30.02,SE,127,0.0,0.0,96,0.00,,,0.00,VWS V14.01,2013-05-17 13:20:00,
2013-05-17 09:21:00,60.4,59.3,30.02,SE,127,0.0,0.0,96,0.00,,,0.00,VWS V14.01,2013-05-17 13:21:00,
2013-05-17 09:25:00,60.7,59.3,30.02,SE,127,0.0,0.0,95,0.00,,,0.00,VWS V14.01,2013-05-17 13:25:00,
2013-05-17 09:26:00,60.7,59.3,30.02,SE,127,0.0,0.0,95,0.00,,,0.00,VWS V14.01,2013-05-17 13:26:00,
2013-05-17 09:30:00,60.9,58.9,30.01,SE,127,0.0,0.0,93,0.00,,,0.00,VWS V14.01,2013-05-17 13:30:00,
2013-05-17 09:31:00,60.9,58.9,30.02,SE,127,0.0,0.0,93,0.00,,,0.00,VWS V14.01,2013-05-17 13:31:00,
2013-05-17 09:35:00,61.3,59.3,30.01,SE,127,0.0,0.0,93,0.00,,,0.00,VWS V14.01,2013-05-17 13:35:00,
2013-05-17 09:36:00,61.2,59.2,30.01,SE,127,0.0,0.0,93,0.00,,,0.00,VWS V14.01,2013-05-17 13:36:00,
2013-05-17 09:40:00,61.8,59.8,30.01,SE,127,0.0,0.0,93,0.00,,,0.00,VWS V14.01,2013-05-17 13:40:00,
2013-05-17 09:41:00,61.6,59.6,30.01,SE,127,0.0,0.0,93,0.00,,,0.00,VWS V14.01,2013-05-17 13:41:00,
2013-05-17 09:45:00,62.0,59.7,30.01,SE,127,0.0,0.0,92,0.00,,,0.00,VWS V14.01,2013-05-17 13:45:00,
2013-05-17 09:46:00,62.0,59.7,30.01,SE,127,0.0,0.0,92,0.00,,,0.00,VWS V14.01,2013-05-17 13:46:00,
2013-05-17 09:50:00,62.1,59.5,30.01,SE,127,0.0,0.0,91,0.00,,,0.00,VWS V14.01,2013-05-17 13:50:00,
2013-05-17 09:51:00,62.1,59.5,30.01,SE,127,0.0,0.0,91,0.00,,,0.00,VWS V14.01,2013-05-17 13:51:00,
2013-05-17 09:55:00,62.3,59.3,30.01,ENE,67,0.0,0.0,90,0.00,,,0.00,VWS V14.01,2013-05-17 13:55:00,
2013-05-17 09:56:00,62.3,59.3,30.01,ESE,111,0.0,0.0,90,0.00,,,0.00,VWS V14.01,2013-05-17 13:56:00,
2013-05-17 10:00:00,62.3,59.0,30.02,West,278,1.0,0.0,89,0.00,,,0.00,VWS V14.01,2013-05-17 14:00:00,
2013-05-17 10:01:00,62.3,59.0,30.02,SSW,207,1.0,0.0,89,0.00,,,0.00,VWS V14.01,2013-05-17 14:01:00,
2013-05-17 10:05:00,62.4,58.5,30.02,West,278,0.0,0.0,87,0.00,,,0.00,VWS V14.01,2013-05-17 14:05:00,
2013-05-17 10:07:00,62.4,58.5,30.02,West,278,0.0,0.0,87,0.00,,,0.00,VWS V14.01,2013-05-17 14:07:00,
2013-05-17 10:10:00,62.6,58.4,30.02,WNW,284,2.0,0.0,86,0.00,,,0.00,VWS V14.01,2013-05-17 14:10:00,
2013-05-17 10:12:00,62.6,58.4,30.02,WNW,283,0.0,0.0,86,0.00,,,0.00,VWS V14.01,2013-05-17 14:12:00,
2013-05-17 10:15:00,62.9,58.0,30.02,WNW,284,0.0,0.0,84,0.00,,,0.00,VWS V14.01,2013-05-17 14:15:00,
2013-05-17 10:17:00,62.9,58.0,30.02,WNW,284,0.0,0.0,84,0.00,,,0.00,VWS V14.01,2013-05-17 14:17:00,
2013-05-17 10:20:00,63.5,58.9,30.02,WNW,284,0.0,0.0,85,0.00,,,0.00,VWS V14.01,2013-05-17 14:20:00,
2013-05-17 10:22:00,63.5,58.9,30.02,WNW,284,0.0,0.0,85,0.00,,,0.00,VWS V14.01,2013-05-17 14:22:00,
2013-05-17 10:25:00,64.2,59.3,30.02,WNW,284,0.0,0.0,84,0.00,,,0.00,VWS V14.01,2013-05-17 14:25:00,
2013-05-17 10:27:00,64.2,59.3,30.02,WNW,284,0.0,0.0,84,0.00,,,0.00,VWS V14.01,2013-05-17 14:27:00,
2013-05-17 10:30:00,64.8,59.2,30.02,WNW,284,0.0,0.0,82,0.00,,,0.00,VWS V14.01,2013-05-17 14:30:00,
2013-05-17 10:32:00,64.8,59.2,30.02,WNW,284,0.0,0.0,82,0.00,,,0.00,VWS V14.01,2013-05-17 14:32:00,
2013-05-17 10:35:00,65.5,59.9,30.02,WNW,284,0.0,0.0,82,0.00,,,0.00,VWS V14.01,2013-05-17 14:35:00,
2013-05-17 10:37:00,65.5,59.9,30.02,WNW,284,0.0,0.0,82,0.00,,,0.00,VWS V14.01,2013-05-17 14:37:00,
2013-05-17 10:40:00,66.1,58.7,30.02,WNW,284,0.0,0.0,77,0.00,,,0.00,VWS V14.01,2013-05-17 14:40:00,
2013-05-17 10:42:00,66.0,59.3,30.02,WNW,284,0.0,0.0,79,0.00,,,0.00,VWS V14.01,2013-05-17 14:42:00,
2013-05-17 10:45:00,66.6,57.7,30.02,West,278,2.0,0.0,73,0.00,,,0.00,VWS V14.01,2013-05-17 14:45:00,
2013-05-17 10:47:00,66.6,58.4,30.02,West,278,1.0,0.0,75,0.00,,,0.00,VWS V14.01,2013-05-17 14:47:00,
2013-05-17 10:50:00,67.3,59.8,30.02,West,278,0.0,0.0,77,0.00,,,0.00,VWS V14.01,2013-05-17 14:50:00,
2013-05-17 10:52:00,67.3,59.8,30.02,West,278,0.0,0.0,77,0.00,,,0.00,VWS V14.01,2013-05-17 14:52:00,
2013-05-17 10:55:00,67.6,57.9,30.02,West,278,0.0,0.0,71,0.00,,,0.00,VWS V14.01,2013-05-17 14:55:00,
2013-05-17 10:57:00,67.6,57.9,30.02,West,278,0.0,0.0,71,0.00,,,0.00,VWS V14.01,2013-05-17 14:57:00,
2013-05-17 11:00:00,68.1,58.7,30.02,West,271,0.0,0.0,72,0.00,,,0.00,VWS V14.01,2013-05-17 15:00:00,
2013-05-17 11:02:00,68.1,58.7,30.02,West,271,0.0,0.0,72,0.00,,,0.00,VWS V14.01,2013-05-17 15:02:00,
2013-05-17 11:05:00,68.6,58.4,30.02,West,279,0.0,0.0,70,0.00,,,0.00,VWS V14.01,2013-05-17 15:05:00,
2013-05-17 11:07:00,68.6,58.4,30.02,West,279,0.0,0.0,70,0.00,,,0.00,VWS V14.01,2013-05-17 15:07:00,
2013-05-17 11:10:00,69.1,60.5,30.02,West,279,0.0,0.0,74,0.00,,,0.00,VWS V14.01,2013-05-17 15:10:00,
2013-05-17 11:12:00,69.1,60.5,30.02,West,279,0.0,0.0,74,0.00,,,0.00,VWS V14.01,2013-05-17 15:12:00,
2013-05-17 11:15:00,69.6,61.0,30.01,West,279,0.0,0.0,74,0.00,,,0.00,VWS V14.01,2013-05-17 15:15:00,
2013-05-17 11:17:00,69.6,61.0,30.01,West,279,0.0,0.0,74,0.00,,,0.00,VWS V14.01,2013-05-17 15:17:00,
2013-05-17 11:20:00,69.9,60.1,30.01,WSW,244,0.0,0.0,71,0.00,,,0.00,VWS V14.01,2013-05-17 15:20:00,
2013-05-17 11:23:00,69.9,60.1,30.01,WSW,244,0.0,0.0,71,0.00,,,0.00,VWS V14.01,2013-05-17 15:23:00,
2013-05-17 11:25:00,70.3,60.5,30.01,WSW,244,2.0,0.0,71,0.00,,,0.00,VWS V14.01,2013-05-17 15:25:00,
2013-05-17 11:28:00,70.3,60.1,30.01,WSW,244,2.0,0.0,70,0.00,,,0.00,VWS V14.01,2013-05-17 15:28:00,
2013-05-17 11:30:00,70.8,59.7,30.01,WSW,244,0.0,0.0,68,0.00,,,0.00,VWS V14.01,2013-05-17 15:30:00,
2013-05-17 11:33:00,70.9,60.2,30.01,WSW,244,0.0,0.0,69,0.00,,,0.00,VWS V14.01,2013-05-17 15:33:00,
2013-05-17 11:35:00,71.3,60.6,30.01,West,259,3.0,0.0,69,0.00,,,0.00,VWS V14.01,2013-05-17 15:35:00,
2013-05-17 11:38:00,71.3,58.9,30.01,West,259,3.0,0.0,65,0.00,,,0.00,VWS V14.01,2013-05-17 15:38:00,
2013-05-17 11:40:00,71.6,58.8,30.01,WSW,257,3.0,0.0,64,0.00,,,0.00,VWS V14.01,2013-05-17 15:40:00,
2013-05-17 11:43:00,71.6,58.8,30.01,WSW,257,3.0,0.0,64,0.00,,,0.00,VWS V14.01,2013-05-17 15:43:00,
2013-05-17 11:45:00,72.0,58.7,30.01,WNW,298,0.0,0.0,63,0.00,,,0.00,VWS V14.01,2013-05-17 15:45:00,
2013-05-17 11:48:00,72.1,58.8,30.01,WNW,298,3.0,0.0,63,0.00,,,0.00,VWS V14.01,2013-05-17 15:48:00,
2013-05-17 11:50:00,72.5,58.3,30.01,WNW,298,0.0,0.0,61,0.00,,,0.00,VWS V14.01,2013-05-17 15:50:00,
2013-05-17 11:53:00,72.7,58.5,30.01,WNW,298,1.0,0.0,61,0.00,,,0.00,VWS V14.01,2013-05-17 15:53:00,
2013-05-17 11:55:00,73.3,58.1,30.01,West,281,0.0,0.0,59,0.00,,,0.00,VWS V14.01,2013-05-17 15:55:00,
2013-05-17 11:58:00,73.3,58.1,30.01,West,281,0.0,0.0,59,0.00,,,0.00,VWS V14.01,2013-05-17 15:58:00,
2013-05-17 12:00:00,73.9,58.7,30.01,West,281,0.0,0.0,59,0.00,,,0.00,VWS V14.01,2013-05-17 16:00:00,
2013-05-17 12:03:00,73.9,57.7,30.01,West,281,0.0,0.0,57,0.00,,,0.00,VWS V14.01,2013-05-17 16:03:00,
2013-05-17 12:05:00,74.4,57.7,30.01,WSW,258,5.0,0.0,56,0.00,,,0.00,VWS V14.01,2013-05-17 16:05:00,
2013-05-17 12:08:00,74.4,57.7,30.01,West,271,2.0,0.0,56,0.00,,,0.00,VWS V14.01,2013-05-17 16:08:00,
2013-05-17 12:10:00,74.7,57.0,30.01,WSW,257,0.0,0.0,54,0.00,,,0.00,VWS V14.01,2013-05-17 16:10:00,
2013-05-17 12:13:00,74.7,57.5,30.01,WSW,257,1.0,0.0,55,0.00,,,0.00,VWS V14.01,2013-05-17 16:13:00,
2013-05-17 12:15:00,75.1,58.3,30.00,WSW,258,0.0,0.0,56,0.00,,,0.00,VWS V14.01,2013-05-17 16:15:00,
2013-05-17 12:18:00,75.1,58.8,30.00,WSW,258,0.0,0.0,57,0.00,,,0.00,VWS V14.01,2013-05-17 16:18:00,
2013-05-17 12:20:00,75.1,56.3,30.00,West,267,2.0,0.0,52,0.00,,,0.00,VWS V14.01,2013-05-17 16:20:00,
2013-05-17 12:23:00,75.1,56.3,30.00,West,267,2.0,0.0,52,0.00,,,0.00,VWS V14.01,2013-05-17 16:23:00,
2013-05-17 12:25:00,75.4,56.6,30.00,West,267,0.0,0.0,52,0.00,,,0.00,VWS V14.01,2013-05-17 16:25:00,
2013-05-17 12:28:00,75.4,56.6,30.00,West,267,0.0,0.0,52,0.00,,,0.00,VWS V14.01,2013-05-17 16:28:00,
2013-05-17 12:30:00,76.1,57.2,30.00,West,267,0.0,0.0,52,0.00,,,0.00,VWS V14.01,2013-05-17 16:30:00,
2013-05-17 12:33:00,76.3,59.0,30.00,West,267,0.0,0.0,55,0.00,,,0.00,VWS V14.01,2013-05-17 16:33:00,
2013-05-17 12:35:00,77.0,58.6,30.00,West,267,0.0,0.0,53,0.00,,,0.00,VWS V14.01,2013-05-17 16:35:00,
2013-05-17 12:39:00,77.2,59.3,30.00,West,267,0.0,0.0,54,0.00,,,0.00,VWS V14.01,2013-05-17 16:39:00,
2013-05-17 12:40:00,77.6,58.6,30.00,West,277,0.0,0.0,52,0.00,,,0.00,VWS V14.01,2013-05-17 16:40:00,
2013-05-17 12:44:00,77.7,58.2,30.00,West,277,2.0,0.0,51,0.00,,,0.00,VWS V14.01,2013-05-17 16:44:00,
2013-05-17 12:45:00,77.9,56.7,29.99,West,277,2.0,0.0,48,0.00,,,0.00,VWS V14.01,2013-05-17 16:45:00,
2013-05-17 12:49:00,77.9,57.8,29.99,West,277,2.0,0.0,50,0.00,,,0.00,VWS V14.01,2013-05-17 16:49:00,
2013-05-17 12:50:00,77.9,58.9,29.99,West,277,0.0,0.0,52,0.00,,,0.00,VWS V14.01,2013-05-17 16:50:00,
2013-05-17 12:54:00,77.9,58.3,29.99,West,277,0.0,0.0,51,0.00,,,0.00,VWS V14.01,2013-05-17 16:54:00,
2013-05-17 12:55:00,78.3,58.2,29.99,West,277,1.0,0.0,50,0.00,,,0.00,VWS V14.01,2013-05-17 16:55:00,
2013-05-17 12:59:00,78.5,56.0,29.99,West,277,0.0,0.0,46,0.00,,,0.00,VWS V14.01,2013-05-17 16:59:00,
2013-05-17 13:00:00,78.8,56.3,29.99,West,278,1.0,0.0,46,0.00,,,0.00,VWS V14.01,2013-05-17 17:00:00,
2013-05-17 13:04:00,79.0,56.5,29.99,West,264,3.0,0.0,46,0.00,,,0.00,VWS V14.01,2013-05-17 17:04:00,
2013-05-17 13:05:00,78.8,57.5,29.99,West,270,0.0,0.0,48,0.00,,,0.00,VWS V14.01,2013-05-17 17:05:00,
2013-05-17 13:09:00,78.8,56.9,29.99,West,270,1.0,0.0,47,0.00,,,0.00,VWS V14.01,2013-05-17 17:09:00,
2013-05-17 13:10:00,79.0,56.5,29.99,West,270,1.0,0.0,46,0.00,,,0.00,VWS V14.01,2013-05-17 17:10:00,
2013-05-17 13:14:00,79.2,59.0,29.99,West,270,2.0,0.0,50,0.00,,,0.00,VWS V14.01,2013-05-17 17:14:00,
2013-05-17 13:15:00,79.6,58.2,29.98,West,270,0.0,0.0,48,0.00,,,0.00,VWS V14.01,2013-05-17 17:15:00,
2013-05-17 13:19:00,79.8,58.4,29.98,West,270,2.0,0.0,48,0.00,,,0.00,VWS V14.01,2013-05-17 17:19:00,
2013-05-17 13:20:00,79.9,57.3,29.98,West,270,3.0,0.0,46,0.00,,,0.00,VWS V14.01,2013-05-17 17:20:00,
2013-05-17 13:24:00,79.9,57.3,29.98,North,5,2.0,0.0,46,0.00,,,0.00,VWS V14.01,2013-05-17 17:24:00,
2013-05-17 13:25:00,79.8,57.8,29.98,WNW,290,0.0,0.0,47,0.00,,,0.00,VWS V14.01,2013-05-17 17:25:00,
2013-05-17 13:29:00,79.8,58.4,29.98,WNW,290,1.0,0.0,48,0.00,,,0.00,VWS V14.01,2013-05-17 17:29:00,
2013-05-17 13:30:00,80.5,59.0,29.98,WNW,290,1.0,0.0,48,0.00,,,0.00,VWS V14.01,2013-05-17 17:30:00,
2013-05-17 13:34:00,81.1,59.0,29.98,WNW,290,1.0,0.0,47,0.00,,,0.00,VWS V14.01,2013-05-17 17:34:00,
2013-05-17 13:35:00,81.6,58.8,29.98,WNW,290,1.0,0.0,46,0.00,,,0.00,VWS V14.01,2013-05-17 17:35:00,
2013-05-17 13:39:00,82.0,59.8,29.98,WNW,290,0.0,0.0,47,0.00,,,0.00,VWS V14.01,2013-05-17 17:39:00,
2013-05-17 13:40:00,81.8,59.6,29.98,WNW,290,0.0,0.0,47,0.00,,,0.00,VWS V14.01,2013-05-17 17:40:00,
2013-05-17 13:45:00,81.8,60.2,29.98,WNW,290,1.0,0.0,48,0.00,,,0.00,VWS V14.01,2013-05-17 17:45:00,
2013-05-17 13:50:00,81.8,59.0,29.96,WSW,250,1.0,0.0,46,0.00,,,0.00,VWS V14.01,2013-05-17 17:50:00,
2013-05-17 13:55:00,81.6,59.4,29.96,WSW,250,2.0,0.0,47,0.00,,,0.00,VWS V14.01,2013-05-17 17:55:00,
2013-05-17 14:00:00,81.6,58.8,29.96,NW,317,2.0,0.0,46,0.00,,,0.00,VWS V14.01,2013-05-17 18:00:00,
2013-05-17 14:05:00,81.4,59.8,29.96,NW,317,0.0,0.0,48,0.00,,,0.00,VWS V14.01,2013-05-17 18:05:00,
2013-05-17 14:10:00,81.4,59.8,29.96,NW,317,0.0,0.0,48,0.00,,,0.00,VWS V14.01,2013-05-17 18:10:00,
2013-05-17 14:15:00,81.2,59.7,29.96,NW,317,0.0,0.0,48,0.00,,,0.00,VWS V14.01,2013-05-17 18:15:00,
2013-05-17 14:20:00,81.1,59.0,29.97,NW,317,0.0,0.0,47,0.00,,,0.00,VWS V14.01,2013-05-17 18:20:00,
2013-05-17 14:25:00,81.1,59.6,29.97,NW,317,1.0,0.0,48,0.00,,,0.00,VWS V14.01,2013-05-17 18:25:00,
2013-05-17 14:30:00,80.9,60.0,29.97,NW,317,0.0,0.0,49,0.00,,,0.00,VWS V14.01,2013-05-17 18:30:00,
2013-05-17 14:35:00,80.5,59.6,29.97,NW,317,2.0,0.0,49,0.00,,,0.00,VWS V14.01,2013-05-17 18:35:00,
2013-05-17 14:40:00,80.3,60.0,29.97,NW,316,0.0,0.0,50,0.00,,,0.00,VWS V14.01,2013-05-17 18:40:00,
2013-05-17 14:45:00,80.5,60.2,29.97,NW,316,0.0,0.0,50,0.00,,,0.00,VWS V14.01,2013-05-17 18:45:00,
2013-05-17 14:50:00,80.5,59.0,29.96,NW,316,2.0,0.0,48,0.00,,,0.00,VWS V14.01,2013-05-17 18:50:00,
2013-05-17 14:51:00,80.7,59.8,29.96,NW,316,2.0,0.0,49,0.00,,,0.00,VWS V14.01,2013-05-17 18:51:00,
2013-05-17 14:55:00,80.3,60.0,29.96,NW,317,2.0,0.0,50,0.00,,,0.00,VWS V14.01,2013-05-17 18:55:00,
2013-05-17 14:56:00,80.3,59.4,29.96,NW,317,2.0,0.0,49,0.00,,,0.00,VWS V14.01,2013-05-17 18:56:00,
2013-05-17 15:00:00,80.3,59.4,29.95,North,9,1.0,0.0,49,0.00,,,0.00,VWS V14.01,2013-05-17 19:00:00,
2013-05-17 15:01:00,80.3,60.0,29.96,North,9,3.0,0.0,50,0.00,,,0.00,VWS V14.01,2013-05-17 19:01:00,
2013-05-17 15:05:00,80.7,57.4,29.95,North,9,0.0,0.0,45,0.00,,,0.00,VWS V14.01,2013-05-17 19:05:00,
2013-05-17 15:06:00,80.5,57.2,29.95,North,9,0.0,0.0,45,0.00,,,0.00,VWS V14.01,2013-05-17 19:06:00,
2013-05-17 15:10:00,81.4,56.8,29.95,WNW,298,1.0,0.0,43,0.00,,,0.00,VWS V14.01,2013-05-17 19:10:00,
2013-05-17 15:11:00,81.2,58.5,29.95,North,11,0.0,0.0,46,0.00,,,0.00,VWS V14.01,2013-05-17 19:11:00,
2013-05-17 15:15:00,82.0,58.0,29.95,NW,311,0.0,0.0,44,0.00,,,0.00,VWS V14.01,2013-05-17 19:15:00,
2013-05-17 15:16:00,81.8,58.4,29.95,NW,311,0.0,0.0,45,0.00,,,0.00,VWS V14.01,2013-05-17 19:16:00,
2013-05-17 15:20:00,83.0,58.9,29.95,WSW,241,2.0,0.0,44,0.00,,,0.00,VWS V14.01,2013-05-17 19:20:00,
2013-05-17 15:21:00,82.8,58.7,29.95,SW,236,1.0,0.0,44,0.00,,,0.00,VWS V14.01,2013-05-17 19:21:00,
2013-05-17 15:25:00,83.6,58.8,29.95,WSW,241,0.0,0.0,43,0.00,,,0.00,VWS V14.01,2013-05-17 19:25:00,
2013-05-17 15:26:00,83.4,58.6,29.95,WSW,241,1.0,0.0,43,0.00,,,0.00,VWS V14.01,2013-05-17 19:26:00,
2013-05-17 15:30:00,84.0,57.8,29.94,North,355,2.0,0.0,41,0.00,,,0.00,VWS V14.01,2013-05-17 19:30:00,
2013-05-17 15:31:00,84.0,57.8,29.95,North,355,0.0,0.0,41,0.00,,,0.00,VWS V14.01,2013-05-17 19:31:00,
2013-05-17 15:35:00,83.4,58.6,29.94,North,355,1.0,0.0,43,0.00,,,0.00,VWS V14.01,2013-05-17 19:35:00,
2013-05-17 15:36:00,83.4,58.6,29.94,North,355,0.0,0.0,43,0.00,,,0.00,VWS V14.01,2013-05-17 19:36:00,
2013-05-17 15:40:00,83.6,58.1,29.94,North,355,0.0,0.0,42,0.00,,,0.00,VWS V14.01,2013-05-17 19:40:00,
2013-05-17 15:41:00,83.6,57.4,29.94,North,355,0.0,0.0,41,0.00,,,0.00,VWS V14.01,2013-05-17 19:41:00,
2013-05-17 15:45:00,84.0,58.5,29.93,West,275,1.0,0.0,42,0.00,,,0.00,VWS V14.01,2013-05-17 19:45:00,
2013-05-17 15:46:00,84.0,58.5,29.94,West,275,0.0,0.0,42,0.00,,,0.00,VWS V14.01,2013-05-17 19:46:00,
2013-05-17 15:50:00,84.5,58.2,29.93,West,275,0.0,0.0,41,0.00,,,0.00,VWS V14.01,2013-05-17 19:50:00,
2013-05-17 15:51:00,84.5,58.2,29.93,West,275,0.0,0.0,41,0.00,,,0.00,VWS V14.01,2013-05-17 19:51:00,
2013-05-17 15:55:00,84.1,59.2,29.93,West,275,0.0,0.0,43,0.00,,,0.00,VWS V14.01,2013-05-17 19:55:00,
2013-05-17 15:56:00,84.3,58.1,29.93,West,275,0.0,0.0,41,0.00,,,0.00,VWS V14.01,2013-05-17 19:56:00,
2013-05-17 16:00:00,84.1,59.9,29.93,West,275,2.0,0.0,44,0.00,,,0.00,VWS V14.01,2013-05-17 20:00:00,
2013-05-17 16:02:00,84.1,59.9,29.93,West,275,1.0,0.0,44,0.00,,,0.00,VWS V14.01,2013-05-17 20:02:00,
2013-05-17 16:05:00,83.6,59.4,29.93,West,275,1.0,0.0,44,0.00,,,0.00,VWS V14.01,2013-05-17 20:05:00,
2013-05-17 16:07:00,83.8,59.6,29.93,West,275,0.0,0.0,44,0.00,,,0.00,VWS V14.01,2013-05-17 20:07:00,
2013-05-17 16:10:00,82.6,58.5,29.93,West,275,0.0,0.0,44,0.00,,,0.00,VWS V14.01,2013-05-17 20:10:00,
2013-05-17 16:12:00,82.6,58.5,29.93,West,275,0.0,0.0,44,0.00,,,0.00,VWS V14.01,2013-05-17 20:12:00,
2013-05-17 16:15:00,81.8,58.4,29.93,West,275,0.0,0.0,45,0.00,,,0.00,VWS V14.01,2013-05-17 20:15:00,
2013-05-17 16:17:00,82.0,58.6,29.93,West,275,0.0,0.0,45,0.00,,,0.00,VWS V14.01,2013-05-17 20:17:00,
2013-05-17 16:20:00,81.8,59.0,29.93,West,275,0.0,0.0,46,0.00,,,0.00,VWS V14.01,2013-05-17 20:20:00,
2013-05-17 16:22:00,81.8,59.0,29.93,West,275,0.0,0.0,46,0.00,,,0.00,VWS V14.01,2013-05-17 20:22:00,
2013-05-17 16:25:00,81.6,58.8,29.93,WNW,296,0.0,0.0,46,0.00,,,0.00,VWS V14.01,2013-05-17 20:25:00,
2013-05-17 16:27:00,81.6,58.2,29.93,WNW,296,0.0,0.0,45,0.00,,,0.00,VWS V14.01,2013-05-17 20:27:00,
2013-05-17 16:30:00,81.6,58.8,29.92,WNW,296,0.0,0.0,46,0.00,,,0.00,VWS V14.01,2013-05-17 20:30:00,
2013-05-17 16:32:00,81.6,58.8,29.92,WNW,296,0.0,0.0,46,0.00,,,0.00,VWS V14.01,2013-05-17 20:32:00,
2013-05-17 16:35:00,81.6,58.8,29.92,WNW,296,3.0,0.0,46,0.00,,,0.00,VWS V14.01,2013-05-17 20:35:00,
2013-05-17 16:37:00,81.6,58.8,29.92,WNW,296,2.0,0.0,46,0.00,,,0.00,VWS V14.01,2013-05-17 20:37:00,
2013-05-17 16:40:00,81.2,59.1,29.92,WNW,296,0.0,0.0,47,0.00,,,0.00,VWS V14.01,2013-05-17 20:40:00,
2013-05-17 16:42:00,81.2,59.1,29.92,WNW,296,0.0,0.0,47,0.00,,,0.00,VWS V14.01,2013-05-17 20:42:00,
2013-05-17 16:45:00,81.4,58.7,29.92,WNW,296,0.0,0.0,46,0.00,,,0.00,VWS V14.01,2013-05-17 20:45:00,
2013-05-17 16:47:00,81.4,58.7,29.92,WNW,296,0.0,0.0,46,0.00,,,0.00,VWS V14.01,2013-05-17 20:47:00,
2013-05-17 16:50:00,81.4,58.0,29.92,WNW,296,0.0,0.0,45,0.00,,,0.00,VWS V14.01,2013-05-17 20:50:00,
2013-05-17 16:52:00,81.4,58.0,29.92,WNW,296,0.0,0.0,45,0.00,,,0.00,VWS V14.01,2013-05-17 20:52:00,
2013-05-17 16:55:00,82.0,59.2,29.92,WNW,296,0.0,0.0,46,0.00,,,0.00,VWS V14.01,2013-05-17 20:55:00,
2013-05-17 16:57:00,82.0,59.2,29.92,WNW,296,0.0,0.0,46,0.00,,,0.00,VWS V14.01,2013-05-17 20:57:00,
2013-05-17 17:00:00,82.2,58.1,29.91,WNW,296,0.0,0.0,44,0.00,,,0.00,VWS V14.01,2013-05-17 21:00:00,
2013-05-17 17:02:00,82.2,58.1,29.91,WNW,296,0.0,0.0,44,0.00,,,0.00,VWS V14.01,2013-05-17 21:02:00,
2013-05-17 17:05:00,82.2,58.8,29.91,WNW,296,0.0,0.0,45,0.00,,,0.00,VWS V14.01,2013-05-17 21:05:00,
2013-05-17 17:07:00,82.2,58.8,29.91,WNW,296,0.0,0.0,45,0.00,,,0.00,VWS V14.01,2013-05-17 21:07:00,
2013-05-17 17:10:00,82.2,58.8,29.91,WNW,296,0.0,0.0,45,0.00,,,0.00,VWS V14.01,2013-05-17 21:10:00,
2013-05-17 17:12:00,82.2,58.8,29.91,WNW,296,0.0,0.0,45,0.00,,,0.00,VWS V14.01,2013-05-17 21:12:00,
2013-05-17 17:15:00,81.6,58.8,29.91,WNW,296,0.0,0.0,46,0.00,,,0.00,VWS V14.01,2013-05-17 21:15:00,
2013-05-17 17:18:00,81.6,58.8,29.91,WNW,296,0.0,0.0,46,0.00,,,0.00,VWS V14.01,2013-05-17 21:18:00,
2013-05-17 17:20:00,81.6,60.0,29.91,WNW,296,0.0,0.0,48,0.00,,,0.00,VWS V14.01,2013-05-17 21:20:00,
2013-05-17 17:23:00,81.6,60.0,29.91,WNW,296,0.0,0.0,48,0.00,,,0.00,VWS V14.01,2013-05-17 21:23:00,
2013-05-17 17:25:00,81.6,58.8,29.91,WNW,296,0.0,0.0,46,0.00,,,0.00,VWS V14.01,2013-05-17 21:25:00,
2013-05-17 17:28:00,81.6,58.8,29.91,WNW,296,0.0,0.0,46,0.00,,,0.00,VWS V14.01,2013-05-17 21:28:00,
2013-05-17 17:30:00,81.4,58.0,29.92,WNW,296,0.0,0.0,45,0.00,,,0.00,VWS V14.01,2013-05-17 21:30:00,
2013-05-17 17:33:00,81.4,58.0,29.92,WNW,296,0.0,0.0,45,0.00,,,0.00,VWS V14.01,2013-05-17 21:33:00,
2013-05-17 17:35:00,81.4,58.7,29.92,WNW,296,0.0,0.0,46,0.00,,,0.00,VWS V14.01,2013-05-17 21:35:00,
2013-05-17 17:38:00,81.4,58.7,29.92,WNW,296,0.0,0.0,46,0.00,,,0.00,VWS V14.01,2013-05-17 21:38:00,
2013-05-17 17:40:00,81.2,58.5,29.92,WNW,296,0.0,0.0,46,0.00,,,0.00,VWS V14.01,2013-05-17 21:40:00,
2013-05-17 17:43:00,81.2,58.5,29.92,WNW,296,1.0,0.0,46,0.00,,,0.00,VWS V14.01,2013-05-17 21:43:00,
2013-05-17 17:45:00,80.9,60.0,29.91,WNW,296,0.0,0.0,49,0.00,,,0.00,VWS V14.01,2013-05-17 21:45:00,
2013-05-17 17:48:00,80.9,61.1,29.91,WNW,296,0.0,0.0,51,0.00,,,0.00,VWS V14.01,2013-05-17 21:48:00,
2013-05-17 17:50:00,80.3,60.5,29.91,WNW,296,0.0,0.0,51,0.00,,,0.00,VWS V14.01,2013-05-17 21:50:00,
2013-05-17 17:53:00,80.3,60.0,29.91,WNW,296,0.0,0.0,50,0.00,,,0.00,VWS V14.01,2013-05-17 21:53:00,
2013-05-17 17:55:00,79.6,59.9,29.91,WNW,296,1.0,0.0,51,0.00,,,0.00,VWS V14.01,2013-05-17 21:55:00,
2013-05-17 17:58:00,79.6,59.9,29.91,WNW,296,1.0,0.0,51,0.00,,,0.00,VWS V14.01,2013-05-17 21:58:00,
2013-05-17 18:00:00,78.8,59.2,29.91,WNW,296,0.0,0.0,51,0.00,,,0.00,VWS V14.01,2013-05-17 22:00:00,
2013-05-17 18:03:00,78.8,59.2,29.91,WNW,296,1.0,0.0,51,0.00,,,0.00,VWS V14.01,2013-05-17 22:03:00,
2013-05-17 18:05:00,78.1,60.1,29.91,West,281,10.0,0.0,54,0.00,,,0.00,VWS V14.01,2013-05-17 22:05:00,
2013-05-17 18:08:00,78.1,59.1,29.91,NNW,346,6.0,0.0,52,0.00,,,0.00,VWS V14.01,2013-05-17 22:08:00,
2013-05-17 18:10:00,76.5,55.9,29.91,NE,42,2.0,0.0,49,0.00,,,0.00,VWS V14.01,2013-05-17 22:10:00,
2013-05-17 18:13:00,76.5,55.9,29.91,WNW,287,4.0,0.0,49,0.00,,,0.00,VWS V14.01,2013-05-17 22:13:00,
2013-05-17 18:15:00,74.7,54.8,29.94,NW,323,1.0,0.0,50,0.00,,,0.00,VWS V14.01,2013-05-17 22:15:00,
2013-05-17 18:18:00,74.4,54.6,29.94,South,191,3.0,0.0,50,0.00,,,0.00,VWS V14.01,2013-05-17 22:18:00,
2013-05-17 18:20:00,73.0,55.9,29.94,SE,140,3.0,0.0,55,0.00,,,0.00,VWS V14.01,2013-05-17 22:20:00,
2013-05-17 18:23:00,72.5,56.9,29.94,NW,304,7.0,0.0,58,0.00,,,0.00,VWS V14.01,2013-05-17 22:23:00,
2013-05-17 18:25:00,69.6,59.8,29.94,NNW,331,5.0,0.0,71,0.00,,,0.00,VWS V14.01,2013-05-17 22:25:00,
2013-05-17 18:28:00,69.6,59.8,29.94,NNW,331,5.0,0.0,71,0.00,,,0.00,VWS V14.01,2013-05-17 22:28:00,
2013-05-17 18:30:00,66.9,60.9,29.98,North,5,1.0,0.0,81,0.03,,,0.03,VWS V14.01,2013-05-17 22:30:00,
2013-05-17 18:33:00,66.6,60.9,29.98,NW,320,3.0,0.0,82,0.03,,,0.03,VWS V14.01,2013-05-17 22:33:00,
2013-05-17 18:35:00,65.2,60.6,29.98,NNW,335,4.0,0.0,85,0.11,,,0.11,VWS V14.01,2013-05-17 22:35:00,
2013-05-17 18:38:00,64.8,60.5,29.98,NW,325,2.0,0.0,86,0.13,,,0.13,VWS V14.01,2013-05-17 22:38:00,
2013-05-17 18:40:00,64.0,60.7,29.98,SW,219,1.0,0.0,89,0.28,,,0.28,VWS V14.01,2013-05-17 22:40:00,
2013-05-17 18:43:00,63.7,60.4,29.98,NW,311,2.0,0.0,89,0.34,,,0.34,VWS V14.01,2013-05-17 22:43:00,
2013-05-17 18:45:00,62.7,59.7,30.03,NE,51,1.0,0.0,90,0.60,,,0.60,VWS V14.01,2013-05-17 22:45:00,
2013-05-17 18:48:00,62.4,59.7,30.03,ENE,59,0.0,0.0,91,0.65,,,0.65,VWS V14.01,2013-05-17 22:48:00,
2013-05-17 18:50:00,61.8,59.5,30.03,NNE,26,1.0,0.0,92,0.87,,,0.87,VWS V14.01,2013-05-17 22:50:00,
2013-05-17 18:53:00,61.6,59.3,30.03,NNE,28,0.0,0.0,92,0.93,,,0.93,VWS V14.01,2013-05-17 22:53:00,
2013-05-17 18:55:00,61.3,59.3,30.03,ENE,70,1.0,0.0,93,1.09,,,1.09,VWS V14.01,2013-05-17 22:55:00,
2013-05-17 18:59:00,61.3,59.3,30.03,ENE,71,1.0,0.0,93,1.11,,,1.11,VWS V14.01,2013-05-17 22:59:00,
2013-05-17 19:00:00,61.2,59.5,29.99,ENE,71,0.0,0.0,94,1.15,,,1.15,VWS V14.01,2013-05-17 23:00:00,
2013-05-17 19:04:00,61.3,59.6,29.99,ENE,71,0.0,0.0,94,1.15,,,1.15,VWS V14.01,2013-05-17 23:04:00,
2013-05-17 19:05:00,61.2,59.5,29.99,ENE,71,0.0,0.0,94,1.17,,,1.17,VWS V14.01,2013-05-17 23:05:00,
2013-05-17 19:09:00,61.2,59.5,29.99,ENE,71,0.0,0.0,94,1.17,,,1.17,VWS V14.01,2013-05-17 23:09:00,
2013-05-17 19:10:00,61.0,59.6,29.99,ENE,68,0.0,1.0,95,1.17,,,1.17,VWS V14.01,2013-05-17 23:10:00,
2013-05-17 19:15:00,61.2,59.8,29.98,ENE,68,0.0,0.0,95,1.18,,,1.18,VWS V14.01,2013-05-17 23:15:00,
2013-05-17 19:20:00,61.3,59.9,29.98,ENE,68,0.0,0.0,95,1.18,,,1.18,VWS V14.01,2013-05-17 23:20:00,
2013-05-17 19:25:00,61.6,60.5,29.98,ENE,68,0.0,0.0,96,1.19,,,1.19,VWS V14.01,2013-05-17 23:25:00,
2013-05-17 19:30:00,61.8,60.7,29.98,ENE,68,0.0,1.0,96,1.19,,,1.19,VWS V14.01,2013-05-17 23:30:00,
2013-05-17 19:35:00,62.0,60.8,29.98,ENE,68,0.0,0.0,96,1.17,,,1.20,VWS V14.01,2013-05-17 23:35:00,
2013-05-17 19:40:00,62.0,60.8,29.98,ENE,68,0.0,0.0,96,1.10,,,1.21,VWS V14.01,2013-05-17 23:40:00,
2013-05-17 19:45:00,62.1,61.0,29.98,ENE,68,0.0,0.0,96,0.94,,,1.22,VWS V14.01,2013-05-17 23:45:00,
2013-05-17 19:50:00,62.1,61.0,29.98,ENE,68,0.0,0.0,96,0.62,,,1.22,VWS V14.01,2013-05-17 23:50:00,
2013-05-17 19:55:00,62.1,61.0,29.98,North,0,0.0,2.0,96,0.35,,,1.22,VWS V14.01,2013-05-17 23:55:00,
2013-05-17 20:00:00,62.1,61.0,29.98,North,0,0.0,1.0,96,0.14,,,1.23,VWS V14.01,2013-05-18 00:00:00,
2013-05-17 20:05:00,62.0,60.8,29.98,North,0,0.0,3.0,96,0.08,,,1.23,VWS V14.01,2013-05-18 00:05:00,
2013-05-17 20:10:00,62.1,61.0,29.98,North,0,0.0,0.0,96,0.07,,,1.24,VWS V14.01,2013-05-18 00:10:00,
2013-05-17 20:15:00,62.1,61.0,29.97,North,0,0.0,1.0,96,0.07,,,1.24,VWS V14.01,2013-05-18 00:15:00,
2013-05-17 20:20:00,62.1,61.0,29.97,North,0,0.0,0.0,96,0.06,,,1.24,VWS V14.01,2013-05-18 00:20:00,
2013-05-17 20:25:00,62.0,60.8,29.97,North,0,0.0,0.0,96,0.06,,,1.24,VWS V14.01,2013-05-18 00:25:00,
2013-05-17 20:30:00,62.0,60.8,29.97,North,0,0.0,0.0,96,0.05,,,1.24,VWS V14.01,2013-05-18 00:30:00,
2013-05-17 20:35:00,62.0,60.8,29.97,North,0,0.0,1.0,96,0.05,,,1.24,VWS V14.01,2013-05-18 00:35:00,
2013-05-17 20:40:00,62.1,61.0,29.97,North,0,0.0,0.0,96,0.04,,,1.24,VWS V14.01,2013-05-18 00:40:00,
2013-05-17 20:45:00,62.0,60.8,29.97,North,0,0.0,2.0,96,0.03,,,1.24,VWS V14.01,2013-05-18 00:45:00,
2013-05-17 20:50:00,62.0,60.8,29.97,North,0,0.0,0.0,96,0.02,,,1.24,VWS V14.01,2013-05-18 00:50:00,
2013-05-17 20:55:00,61.8,60.7,29.97,North,0,0.0,1.0,96,0.02,,,1.24,VWS V14.01,2013-05-18 00:55:00,
2013-05-17 21:00:00,61.6,60.5,29.98,North,0,0.0,0.0,96,0.02,,,1.24,VWS V14.01,2013-05-18 01:00:00,
2013-05-17 21:05:00,61.5,60.3,29.98,North,0,0.0,0.0,96,0.01,,,1.24,VWS V14.01,2013-05-18 01:05:00,
2013-05-17 21:10:00,61.3,60.2,29.98,North,0,0.0,0.0,96,0.01,,,1.24,VWS V14.01,2013-05-18 01:10:00,
2013-05-17 21:15:00,61.3,60.2,29.98,North,0,0.0,0.0,96,0.00,,,1.24,VWS V14.01,2013-05-18 01:15:00,
2013-05-17 21:20:00,61.3,60.2,29.98,North,0,0.0,0.0,96,0.00,,,1.24,VWS V14.01,2013-05-18 01:20:00,
2013-05-17 21:25:00,61.3,60.2,29.98,North,0,0.0,0.0,96,0.00,,,1.24,VWS V14.01,2013-05-18 01:25:00,
2013-05-17 21:30:00,61.3,60.2,29.98,North,0,0.0,0.0,96,0.00,,,1.24,VWS V14.01,2013-05-18 01:30:00,
2013-05-17 21:35:00,61.3,60.2,29.98,North,0,0.0,0.0,96,0.00,,,1.24,VWS V14.01,2013-05-18 01:35:00,
2013-05-17 21:40:00,61.5,60.3,29.98,North,0,0.0,0.0,96,0.00,,,1.24,VWS V14.01,2013-05-18 01:40:00,
2013-05-17 21:45:00,61.5,60.3,29.98,North,0,0.0,0.0,96,0.00,,,1.24,VWS V14.01,2013-05-18 01:45:00,
2013-05-17 21:50:00,61.5,60.3,29.98,North,0,0.0,0.0,96,0.00,,,1.24,VWS V14.01,2013-05-18 01:50:00,
2013-05-17 21:55:00,61.3,60.2,29.98,North,0,0.0,0.0,96,0.00,,,1.24,VWS V14.01,2013-05-18 01:55:00,
2013-05-17 22:00:00,61.3,60.2,29.99,North,0,0.0,0.0,96,0.00,,,1.24,VWS V14.01,2013-05-18 02:00:00,
2013-05-17 22:05:00,61.3,60.2,29.99,North,0,0.0,0.0,96,0.00,,,1.24,VWS V14.01,2013-05-18 02:05:00,
2013-05-17 22:10:00,61.3,60.2,29.99,North,0,0.0,0.0,96,0.00,,,1.24,VWS V14.01,2013-05-18 02:10:00,
2013-05-17 22:15:00,61.3,60.2,29.98,North,0,0.0,0.0,96,0.00,,,1.24,VWS V14.01,2013-05-18 02:15:00,
2013-05-17 22:20:00,61.3,60.2,29.98,North,0,0.0,0.0,96,0.00,,,1.24,VWS V14.01,2013-05-18 02:20:00,
2013-05-17 22:25:00,61.2,60.0,29.98,North,0,0.0,0.0,96,0.00,,,1.24,VWS V14.01,2013-05-18 02:25:00,
2013-05-17 22:30:00,61.2,60.0,29.98,North,0,0.0,0.0,96,0.00,,,1.24,VWS V14.01,2013-05-18 02:30:00,
2013-05-17 22:35:00,61.0,59.9,29.98,North,0,0.0,0.0,96,0.00,,,1.24,VWS V14.01,2013-05-18 02:35:00,
2013-05-17 22:40:00,60.9,59.8,29.98,North,0,0.0,0.0,96,0.00,,,1.24,VWS V14.01,2013-05-18 02:40:00,
2013-05-17 22:45:00,60.9,59.8,29.98,North,0,0.0,0.0,96,0.00,,,1.24,VWS V14.01,2013-05-18 02:45:00,
2013-05-17 22:50:00,60.9,59.8,29.98,North,0,0.0,0.0,96,0.00,,,1.24,VWS V14.01,2013-05-18 02:50:00,
2013-05-17 22:55:00,60.9,59.8,29.98,North,0,0.0,0.0,96,0.00,,,1.24,VWS V14.01,2013-05-18 02:55:00,
2013-05-17 23:00:00,60.7,59.6,29.99,North,0,0.0,0.0,96,0.00,,,1.24,VWS V14.01,2013-05-18 03:00:00,
2013-05-17 23:05:00,60.7,59.6,29.99,North,0,0.0,0.0,96,0.00,,,1.24,VWS V14.01,2013-05-18 03:05:00,
2013-05-17 23:10:00,60.5,59.4,29.99,North,0,0.0,0.0,96,0.00,,,1.24,VWS V14.01,2013-05-18 03:10:00,
2013-05-17 23:15:00,60.5,59.4,29.98,North,0,0.0,0.0,96,0.00,,,1.24,VWS V14.01,2013-05-18 03:15:00,
2013-05-17 23:20:00,60.5,59.4,29.98,North,0,0.0,0.0,96,0.00,,,1.24,VWS V14.01,2013-05-18 03:20:00,
2013-05-17 23:25:00,60.4,59.3,29.98,North,0,0.0,0.0,96,0.00,,,1.24,VWS V14.01,2013-05-18 03:25:00,
2013-05-17 23:30:00,60.4,59.3,29.97,North,0,0.0,0.0,96,0.00,,,1.24,VWS V14.01,2013-05-18 03:30:00,
2013-05-17 23:35:00,60.4,59.3,29.97,North,0,0.0,0.0,96,0.00,,,1.24,VWS V14.01,2013-05-18 03:35:00,
2013-05-17 23:40:00,60.5,59.4,29.97,North,0,0.0,0.0,96,0.00,,,1.24,VWS V14.01,2013-05-18 03:40:00,
2013-05-17 23:45:00,60.5,59.4,29.97,North,0,0.0,0.0,96,0.00,,,1.24,VWS V14.01,2013-05-18 03:45:00,
2013-05-17 23:50:00,60.5,59.4,29.97,North,0,0.0,0.0,96,0.00,,,1.24,VWS V14.01,2013-05-18 03:50:00,
2013-05-17 23:55:00,60.5,59.4,29.97,North,0,0.0,0.0,96,0.00,,,1.24,VWS V14.01,2013-05-18 03:55:00,